Time;durP1;ratioP1;P1;durP2;ratioP2;P2;SDS_P1;SDS_P2;PMS_P1;PMS_P2;Temp;Humidity;BMP_temperature;BMP_pressure;BME280_temperature;BME280_humidity;BME280_pressure;Samples;Min_cycle;Max_cycle;Signal;HPM_P1;HPM_P2
2023/04/28 00:01:26;;;;;;;;;;;;;;;10.70;73.95;100479.53;4984066;28;19980;-71
2023/04/28 00:04:29;;;;;;;;;;;;;;;10.69;74.08;100478.72;4973295;28;20336;-71
2023/04/28 00:07:33;;;;;;;;;;;;;;;10.71;74.49;100469.00;4972597;28;20014;-71
2023/04/28 00:10:36;;;;;;;;;;;;;;;10.73;74.58;100468.94;4972819;28;19964;-71
2023/04/28 00:13:41;;;;;;;;;;;;;;;10.69;74.23;100460.41;4972464;28;20416;-71
2023/04/28 00:16:46;;;;;;;;;;;;;;;10.71;74.19;100465.53;4972369;28;19947;-71
2023/04/28 00:19:49;;;;;;;;;;;;;;;10.65;74.41;100460.63;4972196;28;20720;-71
2023/04/28 00:22:53;;;;;;;;;;;;;;;10.67;74.38;100461.41;4972394;28;20293;-71
2023/04/28 00:25:56;;;;;;;;;;;;;;;10.70;74.43;100461.25;4972207;28;19925;-71
2023/04/28 00:28:59;;;;;;;;;;;;;;;10.68;74.62;100452.63;4971625;28;19980;-71
2023/04/28 00:32:02;;;;;;;;;;;;;;;10.66;74.85;100447.50;4971854;28;19925;-71
2023/04/28 00:35:06;;;;;;;;;;;;;;;10.67;74.55;100450.94;4972386;28;19925;-71
2023/04/28 00:38:09;;;;;;;;;;;;;;;10.65;74.54;100444.94;4972930;28;19980;-71
2023/04/28 00:41:13;;;;;;;;;;;;;;;10.65;74.65;100437.09;4972823;28;20044;-71
2023/04/28 00:44:16;;;;;;;;;;;;;;;10.66;75.27;100438.81;4972764;28;20065;-71
2023/04/28 00:47:19;;;;;;;;;;;;;;;10.65;75.52;100424.88;4972197;28;19929;-71
2023/04/28 00:50:23;;;;;;;;;;;;;;;10.66;75.32;100425.72;5025163;28;19939;-71
2023/04/28 00:53:26;;;;;;;;;;;;;;;10.63;75.56;100420.66;5094437;28;20292;-71
2023/04/28 00:56:32;;;;;;;;;;;;;;;10.65;75.82;100421.41;5093397;28;19942;-72
2023/04/28 00:59:35;;;;;;;;;;;;;;;10.63;75.99;100416.28;5094288;28;19946;-70
2023/04/28 01:02:39;;;;;;;;;;;;;;;10.60;76.61;100405.16;5093575;28;20378;-70
2023/04/28 01:05:41;;;;;;;;;;;;;;;10.60;77.09;100402.53;5093390;28;20015;-71
2023/04/28 01:08:47;;;;;;;;;;;;;;;10.57;77.09;100394.84;5093285;28;20017;-71
2023/04/28 01:11:52;;;;;;;;;;;;;;;10.56;77.98;100393.16;5081411;28;19923;-71
2023/04/28 01:15:12;;;;;;;;;;;;;;;10.54;78.17;100387.16;5093267;28;19939;-71
2023/04/28 01:18:15;;;;;;;;;;;;;;;10.54;78.52;100395.03;5093022;28;19927;-71
2023/04/28 01:21:45;;;;;;;;;;;;;;;10.50;78.38;100398.69;5093103;28;19922;-71
2023/04/28 01:24:55;;;;;;;;;;;;;;;10.47;79.06;100384.88;5092985;28;19961;-71
2023/04/28 01:27:59;;;;;;;;;;;;;;;10.43;79.99;100383.38;5093033;28;19923;-71
2023/04/28 01:31:02;;;;;;;;;;;;;;;10.45;79.86;100385.88;5094079;28;19961;-71
2023/04/28 01:34:05;;;;;;;;;;;;;;;10.42;80.02;100376.44;5092911;28;19970;-71
2023/04/28 01:37:09;;;;;;;;;;;;;;;10.37;80.46;100388.94;5093612;28;19923;-71
2023/04/28 01:40:13;;;;;;;;;;;;;;;10.36;80.47;100374.16;5092838;28;19930;-71
2023/04/28 01:43:16;;;;;;;;;;;;;;;10.34;81.21;100370.78;5092863;28;19923;-71
2023/04/28 01:46:19;;;;;;;;;;;;;;;10.34;81.04;100370.78;5093543;28;19927;-71
2023/04/28 01:49:22;;;;;;;;;;;;;;;10.32;81.70;100380.47;5093555;28;19977;-71
2023/04/28 01:52:26;;;;;;;;;;;;;;;10.30;81.59;100377.09;5093459;28;20347;-71
2023/04/28 01:55:30;;;;;;;;;;;;;;;10.30;82.14;100378.88;5092690;28;19982;-71
2023/04/28 01:58:33;;;;;;;;;;;;;;;10.22;82.97;100380.09;5092255;28;19975;-71
2023/04/28 02:01:36;;;;;;;;;;;;;;;10.22;82.43;100374.88;5092443;28;19923;-71
2023/04/28 02:04:39;;;;;;;;;;;;;;;10.24;82.82;100372.16;5092593;28;19927;-71
2023/04/28 02:07:42;;;;;;;;;;;;;;;10.26;82.88;100378.19;5092518;28;19930;-71
2023/04/28 02:10:45;;;;;;;;;;;;;;;10.23;83.02;100368.72;5092460;28;19969;-71
2023/04/28 02:13:49;;;;;;;;;;;;;;;10.23;83.23;100366.09;5093413;28;19923;-71
2023/04/28 02:16:52;;;;;;;;;;;;;;;10.22;83.60;100366.19;5096678;28;19923;-71
2023/04/28 02:19:56;;;;;;;;;;;;;;;10.19;84.48;100369.81;5096599;28;19926;-71
2023/04/28 02:23:00;;;;;;;;;;;;;;;10.11;84.56;100365.91;5097635;28;19969;-71
2023/04/28 02:26:03;;;;;;;;;;;;;;;10.15;84.68;100367.44;5097259;28;19923;-71
2023/04/28 02:29:06;;;;;;;;;;;;;;;10.18;84.35;100360.28;5096341;28;19961;-71
2023/04/28 02:32:09;;;;;;;;;;;;;;;10.18;84.81;100354.22;5084730;28;19927;-71
2023/04/28 02:35:13;;;;;;;;;;;;;;;10.16;85.45;100343.00;5096281;28;19969;-71
2023/04/28 02:38:20;;;;;;;;;;;;;;;10.19;84.96;100340.22;5096249;28;19930;-71
2023/04/28 02:41:23;;;;;;;;;;;;;;;10.20;84.91;100339.28;5096986;28;19962;-71
2023/04/28 02:44:26;;;;;;;;;;;;;;;10.21;84.86;100330.50;5096962;28;20006;-71
2023/04/28 02:47:29;;;;;;;;;;;;;;;10.18;85.04;100317.66;5096150;28;19923;-71
2023/04/28 02:50:32;;;;;;;;;;;;;;;10.17;85.47;100318.53;5096775;28;19958;-70
2023/04/28 02:53:35;;;;;;;;;;;;;;;10.15;85.53;100326.47;5095966;28;19926;-70
2023/04/28 02:56:40;;;;;;;;;;;;;;;10.13;85.86;100330.09;5095675;28;19923;-70
2023/04/28 02:59:43;;;;;;;;;;;;;;;10.13;85.37;100317.03;5095800;28;20053;-70
2023/04/28 03:02:45;;;;;;;;;;;;;;;10.12;85.34;100321.41;5095649;28;19958;-70
2023/04/28 03:05:49;;;;;;;;;;;;;;;10.11;85.85;100309.25;5096414;28;19923;-70
2023/04/28 03:08:52;;;;;;;;;;;;;;;10.14;85.88;100318.72;5095527;28;20386;-70
2023/04/28 03:11:55;;;;;;;;;;;;;;;10.14;86.19;100330.00;5084174;28;19999;-70
2023/04/28 03:14:58;;;;;;;;;;;;;;;10.09;86.67;100316.34;5024548;28;19972;-72
2023/04/28 03:18:01;;;;;;;;;;;;;;;10.05;87.13;100303.53;4982555;28;19929;-71
2023/04/28 03:21:05;;;;;;;;;;;;;;;10.00;87.49;100312.47;4979755;28;19946;-71
2023/04/28 03:24:08;;;;;;;;;;;;;;;9.94;88.13;100304.94;4982204;28;19925;-71
2023/04/28 03:27:11;;;;;;;;;;;;;;;10.01;87.27;100306.31;4981311;28;19929;-71
2023/04/28 03:30:15;;;;;;;;;;;;;;;10.01;87.11;100302.84;4983104;28;19980;-71
2023/04/28 03:33:18;;;;;;;;;;;;;;;10.08;87.09;100298.97;4982873;28;19961;-71
2023/04/28 03:36:22;;;;;;;;;;;;;;;10.09;87.23;100294.63;4981210;28;19992;-71
2023/04/28 03:39:25;;;;;;;;;;;;;;;10.07;87.21;100292.06;4978124;28;19980;-71
2023/04/28 03:42:28;;;;;;;;;;;;;;;10.06;87.28;100294.78;4982033;28;19925;-71
2023/04/28 03:45:44;;;;;;;;;;;;;;;10.01;87.64;100298.47;4980598;28;19976;-71
2023/04/28 03:48:47;;;;;;;;;;;;;;;10.03;87.49;100293.19;4981884;28;20381;-71
2023/04/28 03:51:51;;;;;;;;;;;;;;;10.02;87.51;100294.94;4981508;28;19925;-71
2023/04/28 03:54:55;;;;;;;;;;;;;;;10.01;87.61;100290.63;4970751;28;19992;-71
2023/04/28 03:57:58;;;;;;;;;;;;;;;10.04;87.86;100286.19;4982026;28;19928;-71
2023/04/28 04:01:28;;;;;;;;;;;;;;;10.04;87.45;100280.94;4979591;28;19967;-72
2023/04/28 04:04:31;;;;;;;;;;;;;;;9.98;87.48;100282.13;4981958;28;20002;-72
2023/04/28 04:07:35;;;;;;;;;;;;;;;10.00;87.33;100280.28;4982336;28;19944;-72
2023/04/28 04:10:38;;;;;;;;;;;;;;;9.99;87.79;100269.00;4990917;28;20368;-72
2023/04/28 04:13:41;;;;;;;;;;;;;;;10.01;88.00;100272.34;4991721;28;19925;-71
2023/04/28 04:16:47;;;;;;;;;;;;;;;9.98;87.96;100269.91;4991830;28;19952;-72
2023/04/28 04:19:50;;;;;;;;;;;;;;;9.97;87.86;100265.59;4991732;28;20451;-71
2023/04/28 04:22:53;;;;;;;;;;;;;;;9.96;87.69;100271.78;4992528;28;19925;-71
2023/04/28 04:25:59;;;;;;;;;;;;;;;9.97;88.10;100260.38;4992234;28;19979;-72
2023/04/28 04:29:02;;;;;;;;;;;;;;;9.95;88.40;100266.59;4992388;28;20016;-72
2023/04/28 04:32:06;;;;;;;;;;;;;;;9.95;88.42;100262.22;4991571;28;19924;-72
2023/04/28 04:35:09;;;;;;;;;;;;;;;9.92;88.73;100262.41;4988272;28;19929;-71
2023/04/28 04:38:33;;;;;;;;;;;;;;;9.90;88.55;100266.88;4971808;28;19984;-71
2023/04/28 04:41:46;;;;;;;;;;;;;;;9.88;88.72;100260.88;4971474;28;19929;-72
2023/04/28 04:45:06;;;;;;;;;;;;;;;9.89;88.77;100264.31;4972265;28;19924;-72
2023/04/28 04:48:09;;;;;;;;;;;;;;;9.88;88.81;100254.81;4971916;28;20007;-72
2023/04/28 04:51:12;;;;;;;;;;;;;;;9.85;88.68;100257.59;4972646;28;19941;-72
2023/04/28 04:54:15;;;;;;;;;;;;;;;9.87;89.17;100264.41;4971862;28;20405;-72
2023/04/28 04:57:19;;;;;;;;;;;;;;;9.86;89.41;100252.31;4971550;28;20338;-72
2023/04/28 05:00:37;;;;;;;;;;;;;;;9.89;89.50;100267.81;4972565;28;19929;-72
2023/04/28 05:03:41;;;;;;;;;;;;;;;9.90;89.46;100266.88;4972501;28;20401;-72
2023/04/28 05:06:43;;;;;;;;;;;;;;;9.90;89.69;100260.81;4971648;28;20439;-72
2023/04/28 05:09:47;;;;;;;;;;;;;;;9.91;89.92;100265.09;4971640;28;19971;-72
2023/04/28 05:12:51;;;;;;;;;;;;;;;9.95;90.06;100264.00;4971524;28;20044;-72
2023/04/28 05:15:54;;;;;;;;;;;;;;;9.96;90.70;100270.94;4971506;28;19926;-72
2023/04/28 05:19:05;;;;;;;;;;;;;;;9.98;90.60;100279.50;4971246;28;19964;-72
2023/04/28 05:22:09;;;;;;;;;;;;;;;9.98;89.82;100277.72;4960215;28;19976;-72
2023/04/28 05:25:13;;;;;;;;;;;;;;;9.96;89.93;100287.44;4971611;28;20282;-72
2023/04/28 05:28:16;;;;;;;;;;;;;;;9.97;89.50;100280.44;4971340;28;19944;-71
2023/04/28 05:31:20;;;;;;;;;;;;;;;9.96;89.22;100282.22;4971278;28;19971;-71
2023/04/28 05:34:24;;;;;;;;;;;;;;;9.96;88.62;100284.00;4971534;28;19924;-72
2023/04/28 05:37:28;;;;;;;;;;;;;;;9.98;88.05;100285.56;4971123;28;19944;-72
2023/04/28 05:40:31;;;;;;;;;;;;;;;9.97;88.27;100288.28;4970764;28;19929;-71
2023/04/28 05:43:34;;;;;;;;;;;;;;;9.98;88.88;100289.94;4971153;28;20400;-72
2023/04/28 05:46:38;;;;;;;;;;;;;;;9.98;89.01;100292.56;4970975;28;19971;-72
2023/04/28 05:49:42;;;;;;;;;;;;;;;9.94;88.79;100294.50;4970637;28;19972;-72
2023/04/28 05:52:45;;;;;;;;;;;;;;;9.95;89.13;100293.56;4971002;28;19971;-72
2023/04/28 05:55:48;;;;;;;;;;;;;;;9.95;88.90;100288.34;4970967;28;19926;-72
2023/04/28 05:58:52;;;;;;;;;;;;;;;9.97;88.72;100280.44;4970953;28;19948;-72
2023/04/28 06:01:56;;;;;;;;;;;;;;;9.97;88.78;100270.84;4970126;28;20387;-72
2023/04/28 06:05:00;;;;;;;;;;;;;;;9.88;89.01;100266.09;4970802;28;20508;-71
2023/04/28 06:08:06;;;;;;;;;;;;;;;9.81;89.31;100280.41;4970896;28;19964;-72
2023/04/28 06:11:09;;;;;;;;;;;;;;;9.77;89.09;100284.13;4970770;28;19929;-72
2023/04/28 06:14:12;;;;;;;;;;;;;;;9.82;89.50;100278.63;4970727;28;20281;-72
2023/04/28 06:17:15;;;;;;;;;;;;;;;9.87;89.56;100274.88;4971804;28;19926;-73
2023/04/28 06:20:19;;;;;;;;;;;;;;;9.92;89.07;100272.88;4970652;28;19946;-72
2023/04/28 06:23:22;;;;;;;;;;;;;;;9.94;88.90;100265.78;4970588;28;20343;-71
2023/04/28 06:26:30;;;;;;;;;;;;;;;9.96;89.22;100269.16;4970605;28;20017;-72
2023/04/28 06:29:33;;;;;;;;;;;;;;;9.92;88.99;100274.59;4970935;28;20337;-71
2023/04/28 06:32:36;;;;;;;;;;;;;;;9.95;89.32;100279.66;4959372;28;19972;-71
2023/04/28 06:35:39;;;;;;;;;;;;;;;9.96;89.32;100276.16;4970464;28;20424;-71
2023/04/28 06:38:42;;;;;;;;;;;;;;;10.00;89.26;100273.28;4970833;28;19929;-71
2023/04/28 06:41:47;;;;;;;;;;;;;;;9.92;89.78;100270.25;4970736;28;20424;-75
2023/04/28 06:44:51;;;;;;;;;;;;;;;9.84;89.94;100256.75;4970078;28;19944;-81
2023/04/28 06:47:54;;;;;;;;;;;;;;;9.70;90.94;100259.22;4969571;28;20282;-81
2023/04/28 06:50:57;;;;;;;;;;;;;;;9.74;91.07;100247.72;4970166;28;19941;-71
2023/04/28 06:54:01;;;;;;;;;;;;;;;9.86;91.00;100241.84;4971074;28;19925;-70
2023/04/28 06:57:04;;;;;;;;;;;;;;;9.92;91.16;100236.31;4970881;28;19972;-72
2023/04/28 07:00:07;;;;;;;;;;;;;;;9.94;90.99;100225.75;4970982;28;19975;-72
2023/04/28 07:03:10;;;;;;;;;;;;;;;9.97;90.92;100218.59;4974136;28;19979;-71
2023/04/28 07:06:13;;;;;;;;;;;;;;;10.11;90.93;100206.53;4973305;28;20385;-71
2023/04/28 07:09:16;;;;;;;;;;;;;;;10.17;90.65;100214.03;4974246;28;19925;-71
2023/04/28 07:12:20;;;;;;;;;;;;;;;10.22;90.21;100219.88;4973002;28;19980;-71
2023/04/28 07:15:23;;;;;;;;;;;;;;;10.27;90.41;100222.25;4973553;28;19971;-70
2023/04/28 07:18:27;;;;;;;;;;;;;;;10.30;90.16;100228.13;4973651;28;19929;-71
2023/04/28 07:21:31;;;;;;;;;;;;;;;10.34;89.83;100239.25;4973603;28;19944;-72
2023/04/28 07:24:35;;;;;;;;;;;;;;;10.36;89.76;100246.09;4973494;28;20009;-70
2023/04/28 07:27:38;;;;;;;;;;;;;;;10.38;89.78;100243.41;4974008;28;20016;-69
2023/04/28 07:30:41;;;;;;;;;;;;;;;10.37;89.68;100253.03;4973849;28;19924;-69
2023/04/28 07:33:45;;;;;;;;;;;;;;;10.29;89.98;100255.19;4974153;28;20376;-71
2023/04/28 07:36:49;;;;;;;;;;;;;;;10.31;90.70;100258.59;4973628;28;19972;-71
2023/04/28 07:39:52;;;;;;;;;;;;;;;10.36;90.66;100240.84;4973324;28;20043;-71
2023/04/28 07:42:55;;;;;;;;;;;;;;;10.42;90.45;100244.91;4973816;28;19925;-72
2023/04/28 07:45:58;;;;;;;;;;;;;;;10.47;90.37;100248.97;4973713;28;19924;-72
2023/04/28 07:49:03;;;;;;;;;;;;;;;10.52;89.77;100260.91;4973939;28;19933;-72
2023/04/28 07:52:08;;;;;;;;;;;;;;;10.52;89.96;100264.38;4973556;28;20020;-80
2023/04/28 07:55:15;;;;;;;;;;;;;;;10.42;91.11;100266.66;4973511;28;19926;-82
2023/04/28 07:58:18;;;;;;;;;;;;;;;10.38;91.51;100270.38;4973373;28;19969;-81
2023/04/28 08:01:21;;;;;;;;;;;;;;;10.32;92.73;100265.50;4973446;28;19924;-80
2023/04/28 08:04:26;;;;;;;;;;;;;;;10.51;92.22;100262.69;4973655;28;19925;-80
2023/04/28 08:07:29;;;;;;;;;;;;;;;10.63;91.43;100263.78;4973641;28;20283;-81
2023/04/28 08:10:32;;;;;;;;;;;;;;;10.75;91.32;100252.59;4973314;28;19925;-81
2023/04/28 08:13:35;;;;;;;;;;;;;;;10.91;91.17;100258.66;4972363;28;19929;-81
2023/04/28 08:16:40;;;;;;;;;;;;;;;11.02;90.67;100265.88;4973527;28;20009;-72
2023/04/28 08:19:45;;;;;;;;;;;;;;;11.07;89.57;100263.84;4972227;28;20067;-72
2023/04/28 08:22:48;;;;;;;;;;;;;;;11.17;88.82;100269.38;4973088;28;20405;-72
2023/04/28 08:25:52;;;;;;;;;;;;;;;11.26;88.41;100263.56;4973345;28;20459;-72
2023/04/28 08:28:57;;;;;;;;;;;;;;;11.28;88.54;100272.19;4973321;28;19925;-71
2023/04/28 08:32:01;;;;;;;;;;;;;;;11.24;88.29;100273.31;4972904;28;19925;-71
2023/04/28 08:35:04;;;;;;;;;;;;;;;11.33;88.36;100277.16;4972853;28;19925;-72
2023/04/28 08:38:12;;;;;;;;;;;;;;;11.33;88.23;100280.63;4973000;28;19929;-72
2023/04/28 08:41:16;;;;;;;;;;;;;;;11.38;88.10;100278.56;4984698;28;19925;-72
2023/04/28 08:44:22;;;;;;;;;;;;;;;11.43;87.77;100280.91;4992039;28;19924;-72
2023/04/28 08:47:32;;;;;;;;;;;;;;;11.50;87.96;100284.00;4991092;28;19924;-72
2023/04/28 08:50:37;;;;;;;;;;;;;;;11.51;87.28;100294.38;4986552;28;20360;-72
2023/04/28 08:53:43;;;;;;;;;;;;;;;11.54;86.73;100280.28;4991825;28;19928;-72
2023/04/28 08:56:46;;;;;;;;;;;;;;;11.63;87.61;100274.47;4991867;28;19929;-71
2023/04/28 08:59:49;;;;;;;;;;;;;;;11.74;87.49;100274.69;4991988;28;20025;-71
2023/04/28 09:02:52;;;;;;;;;;;;;;;11.68;86.92;100285.53;4992192;28;19924;-72
2023/04/28 09:05:55;;;;;;;;;;;;;;;11.72;86.58;100288.81;4991837;28;19925;-71
2023/04/28 09:09:16;;;;;;;;;;;;;;;11.87;86.40;100282.66;4991830;28;19963;-72
2023/04/28 09:12:23;;;;;;;;;;;;;;;12.06;86.88;100279.72;4991758;28;19929;-70
2023/04/28 09:15:30;;;;;;;;;;;;;;;12.19;86.28;100275.41;4991741;28;19971;-70
2023/04/28 09:18:33;;;;;;;;;;;;;;;12.16;85.03;100267.75;4991668;28;20390;-70
2023/04/28 09:21:51;;;;;;;;;;;;;;;12.25;85.49;100268.94;4990924;28;20285;-70
2023/04/28 09:24:54;;;;;;;;;;;;;;;12.34;85.63;100248.22;4990864;28;20005;-70
2023/04/28 09:27:57;;;;;;;;;;;;;;;12.47;85.71;100264.00;4991604;28;20483;-70
2023/04/28 09:31:01;;;;;;;;;;;;;;;12.53;85.43;100257.53;4991495;28;19928;-70
2023/04/28 09:34:05;;;;;;;;;;;;;;;12.67;85.26;100262.72;4991453;28;19932;-69
2023/04/28 09:37:15;;;;;;;;;;;;;;;12.73;85.08;100248.34;4991714;28;19924;-71
2023/04/28 09:40:19;;;;;;;;;;;;;;;12.80;85.40;100240.00;4991420;28;19929;-70
2023/04/28 09:43:40;;;;;;;;;;;;;;;12.88;86.77;100241.25;4991308;28;20297;-70
2023/04/28 09:46:44;;;;;;;;;;;;;;;13.12;87.87;100244.03;4991272;28;19925;-70
2023/04/28 09:49:58;;;;;;;;;;;;;;;13.21;84.37;100244.25;4991487;28;19924;-70
2023/04/28 09:53:02;;;;;;;;;;;;;;;13.27;85.39;100232.50;4991513;28;19971;-70
2023/04/28 09:56:11;;;;;;;;;;;;;;;13.44;84.31;100239.25;4990854;28;19924;-70
2023/04/28 09:59:15;;;;;;;;;;;;;;;13.49;83.93;100243.22;4990230;28;19928;-70
2023/04/28 10:02:19;;;;;;;;;;;;;;;13.61;82.85;100231.03;4990198;28;19925;-70
2023/04/28 10:05:24;;;;;;;;;;;;;;;13.53;82.20;100228.13;4990747;28;19924;-70
2023/04/28 10:08:28;;;;;;;;;;;;;;;13.46;84.28;100232.97;4990910;28;20409;-70
2023/04/28 10:12:30;;;;;;;;;;;;;;;13.52;84.58;100215.06;4991009;28;20275;-70
2023/04/28 10:16:21;;;;;;;;;;;;;;;13.72;85.50;100212.75;4991256;28;20381;-70
2023/04/28 10:19:25;;;;;;;;;;;;;;;13.82;84.52;100206.84;4990713;28;19979;-70
2023/04/28 10:22:32;;;;;;;;;;;;;;;13.90;84.33;100200.06;4990645;28;20404;-70
2023/04/28 10:25:37;;;;;;;;;;;;;;;14.06;84.99;100194.56;4989840;28;19956;-70
2023/04/28 10:28:47;;;;;;;;;;;;;;;14.22;84.35;100194.28;4990184;28;19941;-70
2023/04/28 10:32:09;;;;;;;;;;;;;;;14.33;82.91;100196.16;4990793;28;19968;-70
2023/04/28 10:35:35;;;;;;;;;;;;;;;14.34;82.05;100193.41;4992064;28;19924;-70
2023/04/28 10:39:01;;;;;;;;;;;;;;;14.41;82.37;100185.91;4994292;28;19967;-70
2023/04/28 10:42:28;;;;;;;;;;;;;;;14.28;82.62;100193.00;4994150;28;20367;-70
2023/04/28 10:45:50;;;;;;;;;;;;;;;14.36;82.56;100174.91;4994149;28;20031;-68
2023/04/28 10:49:18;;;;;;;;;;;;;;;14.57;82.87;100172.47;4993962;28;20042;-70
2023/04/28 10:57:13;;;;;;;;;;;;;;;14.78;82.07;100156.88;4993998;28;19929;-71
2023/04/28 11:00:35;;;;;;;;;;;;;;;14.83;82.82;100157.34;4994207;28;19991;-71
2023/04/28 11:03:53;;;;;;;;;;;;;;;14.78;82.98;100162.97;4994054;28;19958;-70
2023/04/28 11:07:09;;;;;;;;;;;;;;;14.89;82.16;100151.63;4993746;28;19925;-69
2023/04/28 11:10:13;;;;;;;;;;;;;;;15.02;82.75;100157.63;4993944;28;19925;-69
2023/04/28 11:13:26;;;;;;;;;;;;;;;15.16;82.40;100153.97;4993619;28;19970;-74
2023/04/28 11:16:29;;;;;;;;;;;;;;;15.30;82.50;100142.34;4993592;28;20344;-71
2023/04/28 11:19:32;;;;;;;;;;;;;;;15.44;82.64;100142.06;4993447;28;19928;-71
2023/04/28 11:22:35;;;;;;;;;;;;;;;15.62;82.03;100134.53;4993464;28;19929;-71
2023/04/28 11:25:55;;;;;;;;;;;;;;;15.73;81.08;100123.16;4993472;28;19924;-72
2023/04/28 11:28:58;;;;;;;;;;;;;;;15.75;82.21;100123.88;4993434;28;20320;-72
2023/04/28 11:32:06;;;;;;;;;;;;;;;15.77;83.22;100114.06;4992570;28;19988;-73
2023/04/28 11:35:13;;;;;;;;;;;;;;;15.94;85.15;100108.25;4993166;28;19925;-73
2023/04/28 11:38:16;;;;;;;;;;;;;;;16.17;84.61;100105.53;4992269;28;19929;-72
2023/04/28 11:41:19;;;;;;;;;;;;;;;16.37;85.73;100101.22;4992350;28;20364;-81
2023/04/28 11:44:23;;;;;;;;;;;;;;;16.54;84.62;100105.13;4993271;28;19925;-76
2023/04/28 11:47:30;;;;;;;;;;;;;;;16.81;83.31;100107.25;4993020;28;19970;-80
2023/04/28 11:50:36;;;;;;;;;;;;;;;16.91;81.02;100101.06;4994100;28;19963;-81
2023/04/28 11:53:40;;;;;;;;;;;;;;;16.98;77.98;100105.84;4989605;28;19929;-80
2023/04/28 11:56:44;;;;;;;;;;;;;;;17.05;76.97;100093.78;4973527;28;19925;-79
2023/04/28 11:59:47;;;;;;;;;;;;;;;17.25;76.51;100094.69;4973473;28;19993;-80
2023/04/28 12:02:50;;;;;;;;;;;;;;;17.48;74.48;100084.72;4973546;28;19944;-80
2023/04/28 12:05:54;;;;;;;;;;;;;;;17.40;74.17;100088.88;4973393;28;19972;-78
2023/04/28 12:09:03;;;;;;;;;;;;;;;17.63;73.46;100078.91;4972606;28;19925;-78
2023/04/28 12:12:07;;;;;;;;;;;;;;;17.73;72.66;100081.56;4977137;28;19925;-80
2023/04/28 12:15:22;;;;;;;;;;;;;;;17.99;71.90;100075.78;4982055;28;19928;-79
2023/04/28 12:18:26;;;;;;;;;;;;;;;18.07;70.44;100087.34;4982535;28;19929;-79
2023/04/28 12:21:30;;;;;;;;;;;;;;;17.98;69.79;100076.78;4982084;28;20387;-74
2023/04/28 12:24:34;;;;;;;;;;;;;;;18.01;69.89;100076.50;4983070;28;20394;-75
2023/04/28 12:27:39;;;;;;;;;;;;;;;18.18;69.45;100073.13;4983445;28;19940;-75
2023/04/28 12:30:44;;;;;;;;;;;;;;;18.33;69.42;100066.44;4980205;28;19925;-74
2023/04/28 12:33:47;;;;;;;;;;;;;;;18.35;68.17;100063.69;4978125;28;20431;-75
2023/04/28 12:36:50;;;;;;;;;;;;;;;18.41;68.12;100056.94;4982237;28;19924;-74
2023/04/28 12:39:54;;;;;;;;;;;;;;;18.44;67.87;100051.38;4982365;28;20011;-74
2023/04/28 12:42:58;;;;;;;;;;;;;;;18.42;67.88;100054.19;4982847;28;20344;-77
2023/04/28 12:46:02;;;;;;;;;;;;;;;18.27;67.43;100072.31;4982351;28;19975;-72
2023/04/28 12:49:06;;;;;;;;;;;;;;;18.42;67.82;100072.72;4982121;28;20385;-74
2023/04/28 12:52:09;;;;;;;;;;;;;;;18.47;67.56;100064.34;4982091;28;20021;-75
2023/04/28 12:55:12;;;;;;;;;;;;;;;18.40;67.79;100056.13;4981172;28;20078;-73
2023/04/28 12:58:17;;;;;;;;;;;;;;;18.39;67.70;100053.63;4978218;28;19968;-75
2023/04/28 13:01:21;;;;;;;;;;;;;;;18.44;68.00;100044.28;4980700;28;19929;-73
2023/04/28 13:04:24;;;;;;;;;;;;;;;18.51;67.84;100032.16;4981263;28;20026;-73
2023/04/28 13:07:29;;;;;;;;;;;;;;;18.65;67.82;100022.91;4981380;28;19925;-74
2023/04/28 13:10:31;;;;;;;;;;;;;;;18.68;66.56;100022.63;4979756;28;20360;-73
2023/04/28 13:13:34;;;;;;;;;;;;;;;18.51;66.45;100031.31;4980410;28;19925;-73
2023/04/28 13:16:37;;;;;;;;;;;;;;;18.29;67.66;100022.72;4981646;28;19925;-73
2023/04/28 13:19:41;;;;;;;;;;;;;;;18.23;68.39;100009.22;4981679;28;19984;-73
2023/04/28 13:22:45;;;;;;;;;;;;;;;18.09;69.12;100002.53;4982124;28;20009;-73
2023/04/28 13:25:49;;;;;;;;;;;;;;;17.98;70.06;100010.66;4982424;28;19929;-73
2023/04/28 13:28:52;;;;;;;;;;;;;;;17.87;70.55;99999.25;4982409;28;19960;-73
2023/04/28 13:31:56;;;;;;;;;;;;;;;17.74;72.93;100008.38;4981034;28;20298;-73
2023/04/28 13:35:02;;;;;;;;;;;;;;;17.42;80.65;100065.81;4981920;28;19926;-74
2023/04/28 13:38:06;;;;;;;;;;;;;;;16.92;90.40;100120.41;4982257;28;19961;-74
2023/04/28 13:41:09;;;;;;;;;;;;;;;16.61;91.26;100080.72;4982298;28;19925;-74
2023/04/28 13:44:12;;;;;;;;;;;;;;;16.60;92.92;100067.66;4980234;28;20004;-74
2023/04/28 13:47:16;;;;;;;;;;;;;;;16.91;93.44;100073.81;4980726;28;19964;-74
2023/04/28 13:50:19;;;;;;;;;;;;;;;17.14;91.78;100058.63;4981246;28;19946;-74
2023/04/28 13:53:22;;;;;;;;;;;;;;;17.28;90.02;100049.50;4980894;28;19964;-74
2023/04/28 13:56:26;;;;;;;;;;;;;;;17.19;90.90;100044.03;4981764;28;19926;-74
2023/04/28 13:59:30;;;;;;;;;;;;;;;17.27;90.02;100051.31;4981706;28;19933;-74
2023/04/28 14:02:33;;;;;;;;;;;;;;;17.14;90.68;100050.72;4979960;28;19924;-74
2023/04/28 14:05:37;;;;;;;;;;;;;;;16.82;90.13;100048.22;4978259;28;19925;-75
2023/04/28 14:08:40;;;;;;;;;;;;;;;16.84;91.45;100046.25;4980075;28;20035;-73
2023/04/28 14:11:43;;;;;;;;;;;;;;;16.38;89.19;100043.06;4978751;28;19979;-73
2023/04/28 14:14:47;;;;;;;;;;;;;;;16.33;90.49;100047.88;4980065;28;20329;-76
2023/04/28 14:17:51;;;;;;;;;;;;;;;16.51;89.70;100051.63;4981908;28;19963;-78
2023/04/28 14:20:55;;;;;;;;;;;;;;;17.02;92.14;100047.31;4979781;28;20384;-77
2023/04/28 14:23:59;;;;;;;;;;;;;;;17.23;90.21;100036.69;4979074;28;19926;-76
2023/04/28 14:27:02;;;;;;;;;;;;;;;18.21;86.76;100035.81;4980871;28;19925;-77
2023/04/28 14:30:07;;;;;;;;;;;;;;;18.47;82.78;100016.69;4981477;28;19971;-75
2023/04/28 14:33:10;;;;;;;;;;;;;;;20.70;76.33;100004.56;4981936;28;19987;-76
2023/04/28 14:36:14;;;;;;;;;;;;;;;22.78;63.63;99991.13;4982335;28;19924;-74
2023/04/28 14:39:17;;;;;;;;;;;;;;;22.12;64.37;100014.41;4990710;28;19929;-73
2023/04/28 14:42:21;;;;;;;;;;;;;;;21.42;65.75;100010.34;4990630;28;19928;-74
2023/04/28 14:45:25;;;;;;;;;;;;;;;20.23;71.49;100017.34;4990646;28;19979;-74
2023/04/28 14:48:28;;;;;;;;;;;;;;;19.95;73.25;100006.84;4990341;28;20288;-77
2023/04/28 14:51:32;;;;;;;;;;;;;;;19.58;76.43;100013.09;4990038;28;19990;-75
2023/04/28 14:54:35;;;;;;;;;;;;;;;19.22;80.41;100015.72;4990661;28;20400;-76
2023/04/28 14:57:39;;;;;;;;;;;;;;;18.83;81.00;100019.53;4989705;28;20357;-76
2023/04/28 15:00:43;;;;;;;;;;;;;;;18.23;85.57;100015.34;4990426;28;20017;-76
2023/04/28 15:03:46;;;;;;;;;;;;;;;17.90;87.39;99990.19;4989766;28;20313;-74
2023/04/28 15:06:49;;;;;;;;;;;;;;;17.57;89.81;100007.25;4990672;28;20588;-72
2023/04/28 15:09:52;;;;;;;;;;;;;;;17.58;89.30;99993.91;4990604;28;20014;-75
2023/04/28 15:12:55;;;;;;;;;;;;;;;17.48;92.11;99994.84;4990243;28;19943;-73
2023/04/28 15:15:59;;;;;;;;;;;;;;;17.28;93.27;99997.47;4990183;28;19924;-74
2023/04/28 15:19:05;;;;;;;;;;;;;;;17.22;92.55;99999.81;4989855;28;19967;-73
2023/04/28 15:22:08;;;;;;;;;;;;;;;17.13;92.75;100030.53;4991369;28;19925;-75
2023/04/28 15:25:12;;;;;;;;;;;;;;;16.96;96.50;100024.06;4973186;28;20016;-72
2023/04/28 15:28:16;;;;;;;;;;;;;;;16.74;97.24;100022.44;4973921;28;19925;-73
2023/04/28 15:31:22;;;;;;;;;;;;;;;16.59;98.47;100013.19;4973038;28;19925;-73
2023/04/28 15:34:28;;;;;;;;;;;;;;;16.52;99.54;99999.66;4973376;28;19925;-74
2023/04/28 15:37:39;;;;;;;;;;;;;;;16.26;100.00;100012.44;4973809;28;19941;-73
2023/04/28 15:40:43;;;;;;;;;;;;;;;16.26;100.00;100025.63;4973220;28;19929;-72
2023/04/28 15:43:49;;;;;;;;;;;;;;;16.33;100.00;100053.16;4973722;28;19929;-73
2023/04/28 15:46:52;;;;;;;;;;;;;;;18.15;100.00;100044.31;4984950;28;19925;-73
2023/04/28 15:49:57;;;;;;;;;;;;;;;20.84;84.03;100000.50;4992873;28;19925;-75
2023/04/28 15:53:00;;;;;;;;;;;;;;;22.50;72.63;99987.06;4992921;28;19943;-73
2023/04/28 15:56:04;;;;;;;;;;;;;;;24.61;66.61;99987.72;4992907;28;20063;-73
2023/04/28 15:59:13;;;;;;;;;;;;;;;26.65;56.78;99984.63;4992824;28;20023;-72